Big Bear Station Historical Data
Daily Summary for August 27, 2017 Units:  English    Metric   Both
« Previous Day
Next Day »
Daily Weekly Monthly Yearly Custom
  High: Low: Average:
Temperature: 87.1 °F 52.7 °F 68.4 °F
Dew Point: 52.9 °F 36.6 °F 44.1 °F
Humidity: 72 % 20 % 45 %
Wind Speed: 5.3 mph 0.0 mph 0.9 mph
Wind Gust: -999.0 mph - -
Wind:- - West
Pressure: 30.37 in 30.28 in -
Precipitation: 0.00 in    
Historical Graphs
 
 
Tabular Data for August 27, 2017
Time Temperature Dew Point Pressure Wind Wind Speed Wind Gust Humidity Rainfall Rate (Hourly)
00:01 57.7 °F 43.9 °F 30.35 in Calm   -999.0 mph 60 % 0 in
00:16 57.6 °F 44.2 °F 30.35 in Calm   -999.0 mph 61 % 0 in
00:47 56.8 °F 43.9 °F 30.35 in Calm   -999.0 mph 62 % 0 in
01:02 56.5 °F 42.8 °F 30.35 in Calm   -999.0 mph 60 % 0 in
01:17 56.3 °F 41.7 °F 30.35 in Calm   -999.0 mph 58 % 0 in
01:32 55.6 °F 40.1 °F 30.34 in Calm   -999.0 mph 56 % 0 in
01:47 55.8 °F 40.8 °F 30.34 in Calm   -999.0 mph 57 % 0 in
02:03 55.4 °F 40.4 °F 30.34 in Calm   -999.0 mph 57 % 0 in
02:18 54.9 °F 41.3 °F 30.34 in Calm   -999.0 mph 60 % 0 in
02:33 54.3 °F 39.4 °F 30.34 in Calm   -999.0 mph 57 % 0 in
03:03 54.0 °F 39.1 °F 30.34 in Calm   -999.0 mph 57 % 0 in
03:19 53.8 °F 36.6 °F 30.34 in Calm   -999.0 mph 52 % 0 in
03:34 53.8 °F 38.0 °F 30.34 in Calm   -999.0 mph 55 % 0 in
03:49 53.6 °F 39.2 °F 30.34 in Calm   -999.0 mph 58 % 0 in
04:04 53.2 °F 40.1 °F 30.33 in Calm   -999.0 mph 61 % 0 in
04:19 52.9 °F 39.8 °F 30.34 in Calm   -999.0 mph 61 % 0 in
04:35 53.1 °F 40.4 °F 30.34 in Calm   -999.0 mph 62 % 0 in
04:50 53.1 °F 41.2 °F 30.34 in Calm   -999.0 mph 64 % 0 in
05:05 52.9 °F 42.6 °F 30.34 in Calm   -999.0 mph 68 % 0 in
05:20 53.1 °F 43.2 °F 30.34 in Calm   -999.0 mph 69 % 0 in
05:35 52.9 °F 43.0 °F 30.34 in Calm   -999.0 mph 69 % 0 in
05:51 52.7 °F 40.0 °F 30.34 in Calm   -999.0 mph 62 % 0 in
06:06 52.7 °F 39.2 °F 30.35 in Calm   -999.0 mph 60 % 0 in
06:21 52.9 °F 41.1 °F 30.36 in Calm   -999.0 mph 64 % 0 in
06:36 53.2 °F 41.3 °F 30.36 in Calm   -999.0 mph 64 % 0 in
06:51 53.4 °F 42.7 °F 30.36 in Calm   -999.0 mph 67 % 0 in
07:07 53.4 °F 44.6 °F 30.36 in Calm   -999.0 mph 72 % 0 in
07:22 53.6 °F 44.8 °F 30.36 in Calm   -999.0 mph 72 % 0 in
07:37 54.1 °F 45.3 °F 30.36 in Calm   -999.0 mph 72 % 0 in
07:52 56.1 °F 46.1 °F 30.37 in Calm   -999.0 mph 69 % 0 in
08:08 56.3 °F 45.9 °F 30.37 in Calm   -999.0 mph 68 % 0 in
08:23 57.9 °F 47.8 °F 30.37 in Calm   -999.0 mph 69 % 0 in
08:38 60.1 °F 49.1 °F 30.36 in Calm   -999.0 mph 67 % 0 in
08:53 62.2 °F 45.4 °F 30.36 in Calm   -999.0 mph 54 % 0 in
09:08 64.4 °F 47.9 °F 30.36 in Calm   -999.0 mph 55 % 0 in
09:24 66.2 °F 48.6 °F 30.36 in Calm   -999.0 mph 53 % 0 in
09:39 68.9 °F 50.0 °F 30.36 in Calm   -999.0 mph 51 % 0 in
09:54 70.0 °F 48.3 °F 30.36 in Calm   -999.0 mph 46 % 0 in
10:09 71.1 °F 43.5 °F 30.36 in Calm   -999.0 mph 37 % 0 in
10:24 74.3 °F 46.3 °F 30.36 in Calm   -999.0 mph 37 % 0 in
10:40 77.2 °F 42.5 °F 30.36 in Calm   -999.0 mph 29 % 0 in
10:55 79.0 °F 42.2 °F 30.36 in NW 2.7 mph -999.0 mph 27 % 0 in
11:10 82.4 °F 44.1 °F 30.36 in NNW 4.7 mph -999.0 mph 26 % 0 in
11:25 80.1 °F 43.1 °F 30.35 in Calm   -999.0 mph 27 % 0 in
11:40 84.2 °F 43.5 °F 30.35 in South 3.2 mph -999.0 mph 24 % 0 in
11:56 83.1 °F 41.5 °F 30.35 in North 4.7 mph -999.0 mph 23 % 0 in
12:11 81.5 °F 43.3 °F 30.35 in Calm   -999.0 mph 26 % 0 in
12:26 80.4 °F 46.1 °F 30.34 in NNW 2.2 mph -999.0 mph 30 % 0 in
12:41 84.4 °F 45.8 °F 30.34 in NW 5.3 mph -999.0 mph 26 % 0 in
12:56 80.8 °F 46.5 °F 30.34 in NNW 1.7 mph -999.0 mph 30 % 0 in
13:12 82.0 °F 40.6 °F 30.34 in NNW 3.7 mph -999.0 mph 23 % 0 in
13:27 81.3 °F 38.8 °F 30.34 in Calm   -999.0 mph 22 % 0 in
13:42 82.6 °F 42.2 °F 30.34 in NW 3.7 mph -999.0 mph 24 % 0 in
13:57 85.8 °F 41.4 °F 30.33 in SSW 1.1 mph -999.0 mph 21 % 0 in
14:13 85.8 °F 40.1 °F 30.33 in NW 2.7 mph -999.0 mph 20 % 0 in
14:28 85.3 °F 41.0 °F 30.32 in NNW 2.7 mph -999.0 mph 21 % 0 in
14:43 86.0 °F 40.3 °F 30.31 in WNW 4.2 mph -999.0 mph 20 % 0 in
14:58 85.8 °F 40.1 °F 30.31 in NNW 3.2 mph -999.0 mph 20 % 0 in
15:14 84.2 °F 43.5 °F 30.30 in NW 2.7 mph -999.0 mph 24 % 0 in
15:29 86.4 °F 41.9 °F 30.30 in WNW 2.7 mph -999.0 mph 21 % 0 in
15:44 84.0 °F 41.1 °F 30.30 in NNW 2.7 mph -999.0 mph 22 % 0 in
15:59 84.0 °F 41.1 °F 30.29 in NNE 4.2 mph -999.0 mph 22 % 0 in
16:15 85.1 °F 43.2 °F 30.30 in NW 2.2 mph -999.0 mph 23 % 0 in
16:30 85.8 °F 41.4 °F 30.29 in ESE 2.2 mph -999.0 mph 21 % 0 in
16:45 83.7 °F 40.8 °F 30.29 in North 1.7 mph -999.0 mph 22 % 0 in
17:00 83.3 °F 42.8 °F 30.29 in SW 1.1 mph -999.0 mph 24 % 0 in
17:15 82.0 °F 41.7 °F 30.29 in Calm   -999.0 mph 24 % 0 in
17:31 85.3 °F 45.5 °F 30.29 in North 4.7 mph -999.0 mph 25 % 0 in
17:46 86.2 °F 52.9 °F 30.29 in NNW 3.2 mph -999.0 mph 32 % 0 in
18:02 87.1 °F 52.8 °F 30.28 in Calm   -999.0 mph 31 % 0 in
18:17 87.1 °F 52.8 °F 30.29 in WNW 1.7 mph -999.0 mph 31 % 0 in
18:32 86.5 °F 51.4 °F 30.29 in NNW 1.1 mph -999.0 mph 30 % 0 in
18:47 81.9 °F 51.6 °F 30.29 in Calm   -999.0 mph 35 % 0 in
19:02 79.3 °F 52.9 °F 30.29 in Calm   -999.0 mph 40 % 0 in
19:18 76.5 °F 51.7 °F 30.29 in Calm   -999.0 mph 42 % 0 in
19:33 73.9 °F 51.8 °F 30.30 in Calm   -999.0 mph 46 % 0 in
19:48 72.0 °F 49.5 °F 30.30 in SSE 1.7 mph -999.0 mph 45 % 0 in
20:03 70.7 °F 47.1 °F 30.30 in Calm   -999.0 mph 43 % 0 in
20:18 69.1 °F 47.5 °F 30.31 in Calm   -999.0 mph 46 % 0 in
20:34 68.0 °F 47.6 °F 30.31 in Calm   -999.0 mph 48 % 0 in
20:49 66.7 °F 47.5 °F 30.31 in Calm   -999.0 mph 50 % 0 in
21:04 65.8 °F 47.2 °F 30.32 in Calm   -999.0 mph 51 % 0 in
21:19 64.9 °F 46.9 °F 30.32 in Calm   -999.0 mph 52 % 0 in
21:35 64.2 °F 45.7 °F 30.32 in Calm   -999.0 mph 51 % 0 in
21:50 63.5 °F 45.0 °F 30.32 in Calm   -999.0 mph 51 % 0 in
22:05 63.0 °F 44.6 °F 30.32 in Calm   -999.0 mph 51 % 0 in
22:20 62.2 °F 44.4 °F 30.32 in Calm   -999.0 mph 52 % 0 in
22:35 61.7 °F 44.4 °F 30.32 in Calm   -999.0 mph 53 % 0 in
22:51 61.2 °F 44.4 °F 30.32 in SSE 1.1 mph -999.0 mph 54 % 0 in
23:06 60.6 °F 43.4 °F 30.32 in Calm   -999.0 mph 53 % 0 in
23:21 59.9 °F 43.2 °F 30.32 in Calm   -999.0 mph 54 % 0 in
23:36 59.4 °F 43.7 °F 30.32 in South 2.2 mph -999.0 mph 56 % 0 in
23:51 59.0 °F 43.8 °F 30.32 in Calm   -999.0 mph 57 % 0 in
Big Bear CA Weather
Compliments of Weather Underground - 1 mb